Time;durP1;ratioP1;P1;durP2;ratioP2;P2;SDS_P1;SDS_P2;PMS_P1;PMS_P2;Temp;Humidity;BMP_temperature;BMP_pressure;BME280_temperature;BME280_humidity;BME280_pressure;Samples;Min_cycle;Max_cycle;Signal;HPM_P1;HPM_P2
2022/07/15 00:01:01;;;;;;;9.73;6.05;;;27.50;99.90;;;;;;4179693;28;20075;-63
2022/07/15 00:03:25;;;;;;;8.45;6.15;;;27.60;99.90;;;;;;4165119;28;20053;-64
2022/07/15 00:05:45;;;;;;;9.80;5.63;;;27.60;99.90;;;;;;4160234;28;20152;-64
2022/07/15 00:08:09;;;;;;;10.52;6.18;;;27.60;99.90;;;;;;4178542;28;20041;-64
2022/07/15 00:10:34;;;;;;;10.80;5.53;;;27.60;99.90;;;;;;4153053;28;20799;-65
2022/07/15 00:12:59;;;;;;;8.30;5.70;;;27.60;99.90;;;;;;4156310;28;20191;-64
2022/07/15 00:15:25;;;;;;;15.68;6.15;;;27.60;99.90;;;;;;4159006;28;20397;-64
2022/07/15 00:17:50;;;;;;;13.23;6.03;;;27.60;99.90;;;;;;4158600;28;20545;-63
2022/07/15 00:20:14;;;;;;;12.82;5.32;;;27.70;99.90;;;;;;4165363;28;20572;-63
2022/07/15 00:22:41;;;;;;;10.52;5.60;;;27.70;99.90;;;;;;4181295;28;20131;-63
2022/07/15 00:25:06;;;;;;;12.15;5.97;;;27.70;99.90;;;;;;4145507;28;20062;-61
2022/07/15 00:27:30;;;;;;;9.80;6.10;;;27.80;99.90;;;;;;4159609;28;20124;-63
2022/07/15 00:29:55;;;;;;;14.55;7.60;;;27.80;99.90;;;;;;4146444;28;20125;-64
2022/07/15 00:32:19;;;;;;;22.08;11.68;;;27.90;99.90;;;;;;4160413;28;20052;-64
2022/07/15 00:34:44;;;;;;;15.82;9.82;;;27.90;99.90;;;;;;4146291;28;20531;-66
2022/07/15 00:37:12;;;;;;;17.08;9.48;;;28.00;99.90;;;;;;4158321;28;20053;-64
2022/07/15 00:39:37;;;;;;;17.25;8.90;;;28.10;99.90;;;;;;4146880;28;20100;-63
2022/07/15 00:42:04;;;;;;;17.25;8.18;;;28.10;99.90;;;;;;4162882;28;20045;-64
2022/07/15 00:44:28;;;;;;;17.10;7.43;;;28.20;99.90;;;;;;4157831;28;20108;-63
2022/07/15 00:46:53;;;;;;;12.43;6.07;;;28.30;99.90;;;;;;4131606;28;20046;-65
2022/07/15 00:49:18;;;;;;;12.65;6.80;;;28.40;99.90;;;;;;4179973;28;20131;-64
2022/07/15 00:51:45;;;;;;;12.23;6.45;;;28.40;99.90;;;;;;4158540;28;20111;-67
2022/07/15 00:54:11;;;;;;;12.93;5.75;;;28.50;99.90;;;;;;4180835;28;20071;-66
2022/07/15 00:56:39;;;;;;;8.45;4.43;;;28.50;99.90;;;;;;4159146;28;20045;-64
2022/07/15 00:59:05;;;;;;;10.07;5.07;;;28.60;99.90;;;;;;4161830;28;20550;-65
2022/07/15 01:01:29;;;;;;;7.15;4.43;;;28.70;99.90;;;;;;4160211;28;20523;-65
2022/07/15 01:03:57;;;;;;;14.20;5.07;;;28.80;99.90;;;;;;4139272;28;20058;-64
2022/07/15 01:06:26;;;;;;;8.63;4.40;;;28.80;99.90;;;;;;4158792;28;20107;-64
2022/07/15 01:08:52;;;;;;;11.50;4.28;;;28.90;99.90;;;;;;4156402;28;20045;-65
2022/07/15 01:11:18;;;;;;;8.85;4.30;;;29.00;99.90;;;;;;4160223;28;20079;-66
2022/07/15 01:13:42;;;;;;;7.60;4.05;;;29.10;99.90;;;;;;4145705;28;20141;-65
2022/07/15 01:16:07;;;;;;;9.35;4.07;;;29.10;99.90;;;;;;4160495;28;20063;-65
2022/07/15 01:18:31;;;;;;;9.07;3.95;;;29.10;99.90;;;;;;4151656;28;20097;-65
2022/07/15 01:20:40;;;;;;;9.32;3.78;;;29.20;99.90;;;;;;4155139;28;20056;-65
2022/07/15 01:22:56;;;;;;;6.75;3.67;;;29.20;99.90;;;;;;4153971;28;20293;-64
2022/07/15 01:25:28;;;;;;;6.57;3.33;;;29.30;99.90;;;;;;4129220;28;20040;-64
2022/07/15 01:27:38;;;;;;;6.75;3.88;;;29.30;99.90;;;;;;4155340;28;20060;-64
2022/07/15 01:29:49;;;;;;;11.18;4.10;;;29.50;99.90;;;;;;4159678;28;20068;-65
2022/07/15 01:31:59;;;;;;;7.95;3.63;;;29.60;99.90;;;;;;4158517;28;20033;-64
2022/07/15 01:34:06;;;;;;;6.15;3.55;;;29.70;99.90;;;;;;4161175;28;20037;-64
2022/07/15 01:36:11;;;;;;;7.68;3.47;;;29.60;99.90;;;;;;4183500;28;20056;-64
2022/07/15 01:38:26;;;;;;;8.73;3.47;;;29.50;99.90;;;;;;4155862;28;20045;-64
2022/07/15 01:40:37;;;;;;;5.65;3.13;;;29.40;99.90;;;;;;4158403;28;20468;-65
2022/07/15 01:43:01;;;;;;;6.45;3.05;;;29.20;99.90;;;;;;4160670;28;20068;-65
2022/07/15 01:45:27;;;;;;;6.32;2.95;;;29.20;99.90;;;;;;4156677;28;20158;-66
2022/07/15 01:47:32;;;;;;;7.15;2.80;;;29.20;99.90;;;;;;4151141;28;20037;-65
2022/07/15 01:49:52;;;;;;;6.85;2.63;;;29.40;99.90;;;;;;4153340;28;20137;-63
2022/07/15 01:52:17;;;;;;;7.63;2.70;;;29.60;99.90;;;;;;4157119;28;20546;-64
2022/07/15 01:54:43;;;;;;;6.15;2.95;;;29.80;99.90;;;;;;4158162;28;20490;-64
2022/07/15 01:56:55;;;;;;;5.88;2.92;;;30.00;99.90;;;;;;4160637;28;20080;-64
2022/07/15 01:59:03;;;;;;;4.85;2.80;;;30.10;99.90;;;;;;4128447;28;20529;-63
2022/07/15 02:01:11;;;;;;;6.75;3.13;;;30.10;99.90;;;;;;4163474;28;20053;-64
2022/07/15 02:03:17;;;;;;;6.13;2.70;;;30.20;99.90;;;;;;4164116;28;20450;-63
2022/07/15 02:05:25;;;;;;;4.95;2.65;;;29.90;99.90;;;;;;4130536;28;20049;-64
2022/07/15 02:07:33;;;;;;;8.13;3.00;;;29.80;99.90;;;;;;4180160;28;20063;-63
2022/07/15 02:09:39;;;;;;;6.40;2.60;;;29.70;99.90;;;;;;4163515;28;20057;-63
2022/07/15 02:11:44;;;;;;;6.07;2.58;;;29.70;99.90;;;;;;4163741;28;20527;-64
2022/07/15 02:13:49;;;;;;;6.55;2.75;;;29.70;99.90;;;;;;4163683;28;20345;-64
2022/07/15 02:15:55;;;;;;;4.97;2.55;;;29.80;99.90;;;;;;4169535;28;20483;-64
2022/07/15 02:18:00;;;;;;;8.38;3.13;;;30.00;99.90;;;;;;4162365;28;20052;-64
2022/07/15 02:20:07;;;;;;;5.25;2.70;;;30.20;99.90;;;;;;4162973;28;20507;-64
2022/07/15 02:22:12;;;;;;;5.53;2.45;;;30.40;99.90;;;;;;4163416;28;20049;-64
2022/07/15 02:24:19;;;;;;;5.00;2.47;;;30.60;99.90;;;;;;4162204;28;20350;-64
2022/07/15 02:26:27;;;;;;;7.35;3.00;;;30.70;99.90;;;;;;4162921;28;20092;-64
2022/07/15 02:28:32;;;;;;;5.00;2.67;;;30.80;99.90;;;;;;4163071;28;20041;-64
2022/07/15 02:30:40;;;;;;;7.00;2.88;;;30.80;99.90;;;;;;4143388;28;20038;-64
2022/07/15 02:32:48;;;;;;;5.18;2.45;;;30.60;99.90;;;;;;4162312;28;20041;-65
2022/07/15 02:34:53;;;;;;;4.68;2.50;;;30.50;99.90;;;;;;4163007;28;20045;-64
2022/07/15 02:37:00;;;;;;;8.95;2.97;;;30.40;99.90;;;;;;4188384;28;20065;-64
2022/07/15 02:39:10;;;;;;;5.55;2.45;;;30.30;99.90;;;;;;4164338;28;20052;-64
2022/07/15 02:41:17;;;;;;;5.80;2.55;;;30.20;99.90;;;;;;4160257;28;20499;-63
2022/07/15 02:43:24;;;;;;;7.00;2.63;;;30.10;99.90;;;;;;4162986;28;20048;-64
2022/07/15 02:45:33;;;;;;;4.35;2.08;;;29.80;99.90;;;;;;4162795;28;20045;-64
2022/07/15 02:47:41;;;;;;;5.70;2.03;;;29.80;99.90;;;;;;4162622;28;20041;-64
2022/07/15 02:49:50;;;;;;;5.50;2.22;;;29.70;99.90;;;;;;4162572;28;20130;-64
2022/07/15 02:51:56;;;;;;;7.93;2.17;;;29.80;99.90;;;;;;4146659;28;20080;-65
2022/07/15 02:54:04;;;;;;;5.70;2.50;;;29.90;99.90;;;;;;4179159;28;20056;-64
2022/07/15 02:56:13;;;;;;;5.88;2.10;;;30.20;99.90;;;;;;4162453;28;20540;-64
2022/07/15 02:58:20;;;;;;;6.30;2.30;;;30.50;99.90;;;;;;4159978;28;20156;-65
2022/07/15 03:00:25;;;;;;;5.32;2.53;;;30.70;99.90;;;;;;4162549;28;20103;-64
2022/07/15 03:02:37;;;;;;;5.65;2.45;;;30.80;99.90;;;;;;4127826;28;20062;-65
2022/07/15 03:04:47;;;;;;;4.85;2.33;;;30.90;99.90;;;;;;4161693;28;20159;-63
2022/07/15 03:06:51;;;;;;;6.35;2.30;;;31.00;99.90;;;;;;4161551;28;20049;-64
2022/07/15 03:08:59;;;;;;;4.38;2.47;;;31.00;99.90;;;;;;4161626;28;20072;-64
2022/07/15 03:11:05;;;;;;;4.65;2.20;;;31.00;99.90;;;;;;4161244;28;20140;-64
2022/07/15 03:13:10;;;;;;;5.22;2.25;;;31.00;99.90;;;;;;4163675;28;20443;-63
2022/07/15 03:15:16;;;;;;;8.57;3.08;;;30.90;99.90;;;;;;4163280;28;20712;-64
2022/07/15 03:17:21;;;;;;;4.68;2.50;;;30.90;99.90;;;;;;4162258;28;20542;-64
2022/07/15 03:19:27;;;;;;;5.18;2.67;;;30.80;99.90;;;;;;4161970;28;20042;-66
2022/07/15 03:21:33;;;;;;;7.38;3.03;;;30.80;99.90;;;;;;4162751;28;20046;-64
2022/07/15 03:23:38;;;;;;;4.05;2.22;;;30.70;99.90;;;;;;4162802;28;20046;-64
2022/07/15 03:25:44;;;;;;;4.22;2.17;;;30.70;99.90;;;;;;4162637;28;20054;-64
2022/07/15 03:27:51;;;;;;;5.18;2.25;;;30.70;99.90;;;;;;4161630;28;20046;-64
2022/07/15 03:29:59;;;;;;;4.47;2.38;;;30.80;99.90;;;;;;4162274;28;20080;-64
2022/07/15 03:32:05;;;;;;;5.50;2.22;;;30.90;99.90;;;;;;4161976;28;20876;-64
2022/07/15 03:34:10;;;;;;;5.78;2.22;;;31.10;99.90;;;;;;4163082;28;20046;-64
2022/07/15 03:36:15;;;;;;;5.55;2.30;;;31.30;99.90;;;;;;4162141;28;20034;-63
2022/07/15 03:38:23;;;;;;;5.20;2.25;;;31.50;99.90;;;;;;4166162;28;20500;-64
2022/07/15 03:40:28;;;;;;;6.40;1.90;;;31.50;99.90;;;;;;4169294;28;20057;-62
2022/07/15 03:42:34;;;;;;;7.18;2.28;;;31.60;99.90;;;;;;4169672;28;20040;-62
2022/07/15 03:44:39;;;;;;;4.65;2.28;;;31.50;99.90;;;;;;4162730;28;20053;-63
2022/07/15 03:46:45;;;;;;;22.55;3.35;;;31.30;99.90;;;;;;4171138;28;20044;-63
2022/07/15 03:48:55;;;;;;;18.45;2.88;;;31.20;99.90;;;;;;4169354;28;20037;-62
2022/07/15 03:50:59;;;;;;;4.95;2.15;;;31.30;99.90;;;;;;4167928;28;20049;-63
2022/07/15 03:53:08;;;;;;;3.83;1.92;;;31.20;99.90;;;;;;4170501;28;20098;-63
2022/07/15 03:55:15;;;;;;;4.95;2.25;;;31.10;99.90;;;;;;4169260;28;20053;-64
2022/07/15 03:57:20;;;;;;;5.20;2.13;;;31.10;99.90;;;;;;4166388;28;20049;-63
2022/07/15 03:59:27;;;;;;;4.13;1.90;;;31.10;99.90;;;;;;4170624;28;20099;-64
2022/07/15 04:01:47;;;;;;;6.50;2.28;;;31.00;99.90;;;;;;4168596;28;20047;-63
2022/07/15 04:03:52;;;;;;;5.30;1.90;;;31.00;99.90;;;;;;4170279;28;20041;-64
2022/07/15 04:05:59;;;;;;;5.95;2.03;;;31.00;99.90;;;;;;4161270;28;20045;-64
2022/07/15 04:08:05;;;;;;;4.03;1.92;;;31.10;99.90;;;;;;4162561;28;20132;-64
2022/07/15 04:10:10;;;;;;;4.57;2.15;;;31.20;99.90;;;;;;4160278;28;20627;-65
2022/07/15 04:12:17;;;;;;;5.82;2.13;;;31.20;99.90;;;;;;4138923;28;20091;-65
2022/07/15 04:14:22;;;;;;;5.07;1.83;;;31.40;99.90;;;;;;4155298;28;20041;-64
2022/07/15 04:16:28;;;;;;;4.35;1.90;;;31.40;99.90;;;;;;4149050;28;20039;-64
2022/07/15 04:18:42;;;;;;;6.65;1.80;;;31.50;99.90;;;;;;4152993;28;20135;-64
2022/07/15 04:20:49;;;;;;;5.72;2.20;;;31.60;99.90;;;;;;4150534;28;20057;-64
2022/07/15 04:22:53;;;;;;;7.13;2.55;;;31.60;99.90;;;;;;4163392;28;20052;-64
2022/07/15 04:24:58;;;;;;;9.85;2.38;;;31.60;99.90;;;;;;4153874;28;21046;-64
2022/07/15 04:27:03;;;;;;;5.50;2.03;;;31.70;99.90;;;;;;4153856;28;20042;-64
2022/07/15 04:29:08;;;;;;;7.47;1.95;;;31.90;99.90;;;;;;4156764;28;20408;-64
2022/07/15 04:31:15;;;;;;;4.32;1.75;;;32.10;99.90;;;;;;4139680;28;20038;-64
2022/07/15 04:33:30;;;;;;;4.57;1.60;;;32.20;99.90;;;;;;4150413;28;20245;-64
2022/07/15 04:35:35;;;;;;;5.57;1.73;;;32.40;99.90;;;;;;4150482;28;20053;-64
2022/07/15 04:37:43;;;;;;;4.22;1.65;;;32.60;99.90;;;;;;4126954;28;20981;-63
2022/07/15 04:39:51;;;;;;;3.38;1.88;;;32.60;99.90;;;;;;4148095;28;20393;-63
2022/07/15 04:41:57;;;;;;;4.53;1.88;;;32.60;99.90;;;;;;4154810;28;20496;-64
2022/07/15 04:44:02;;;;;;;5.82;2.00;;;32.40;99.90;;;;;;4154714;28;20053;-63
2022/07/15 04:46:10;;;;;;;5.32;2.38;;;32.30;99.90;;;;;;4153883;28;20037;-63
2022/07/15 04:52:50;;;;;;;8.25;2.10;;;32.20;99.90;;;;;;4179818;28;20147;-64
2022/07/15 04:54:55;;;;;;;3.78;2.05;;;32.10;99.90;;;;;;4154414;28;20045;-64
2022/07/15 04:57:02;;;;;;;6.00;1.70;;;31.80;99.90;;;;;;4154595;28;20045;-64
2022/07/15 04:59:09;;;;;;;5.25;2.13;;;31.80;99.90;;;;;;4155124;28;20140;-64
2022/07/15 05:01:14;;;;;;;2.03;1.52;;;31.70;99.90;;;;;;4178583;28;20202;-64
2022/07/15 05:03:24;;;;;;;7.80;1.80;;;31.60;99.90;;;;;;4154948;28;20049;-64
2022/07/15 05:05:29;;;;;;;2.78;1.50;;;31.50;99.90;;;;;;4152901;28;20069;-64
2022/07/15 05:07:35;;;;;;;4.90;1.45;;;31.40;99.90;;;;;;4155697;28;20519;-64
2022/07/15 05:09:42;;;;;;;3.88;1.42;;;31.60;99.90;;;;;;4155863;28;20042;-63
2022/07/15 05:11:47;;;;;;;4.50;1.42;;;31.80;99.90;;;;;;4156253;28;20053;-64
2022/07/15 05:13:53;;;;;;;4.22;1.90;;;32.00;99.90;;;;;;4155069;28;20060;-64
2022/07/15 05:15:58;;;;;;;3.83;1.58;;;32.10;99.90;;;;;;4155084;28;20107;-64
2022/07/15 05:18:07;;;;;;;4.03;1.70;;;32.20;99.90;;;;;;4155064;28;20049;-64
2022/07/15 05:20:12;;;;;;;4.72;1.80;;;32.30;99.90;;;;;;4154691;28;20579;-65
2022/07/15 05:22:18;;;;;;;3.92;1.45;;;32.40;99.90;;;;;;4156296;28;20560;-64
2022/07/15 05:24:23;;;;;;;6.50;1.77;;;32.50;99.90;;;;;;4155020;28;20152;-64
2022/07/15 05:26:33;;;;;;;5.03;1.75;;;32.40;99.90;;;;;;4155048;28;20045;-64
2022/07/15 05:28:47;;;;;;;3.38;1.30;;;32.50;99.90;;;;;;4138448;28;20054;-64
2022/07/15 05:30:54;;;;;;;3.70;1.30;;;32.00;99.90;;;;;;4140794;28;20046;-64
2022/07/15 05:32:59;;;;;;;6.22;1.30;;;32.00;99.90;;;;;;4142110;28;20492;-64
2022/07/15 05:35:06;;;;;;;6.22;1.70;;;32.00;99.90;;;;;;4121544;28;20050;-63
2022/07/15 05:37:12;;;;;;;3.42;1.33;;;31.90;99.90;;;;;;4158077;28;20386;-63
2022/07/15 05:39:16;;;;;;;4.95;1.65;;;31.80;99.90;;;;;;4157695;28;20111;-62
2022/07/15 05:41:22;;;;;;;2.85;1.30;;;31.70;99.90;;;;;;4158885;28;20053;-62
2022/07/15 05:43:28;;;;;;;2.22;1.30;;;31.80;99.90;;;;;;4158856;28;20049;-62
2022/07/15 05:45:34;;;;;;;4.93;1.55;;;32.00;99.90;;;;;;4159659;28;20160;-63
2022/07/15 05:47:50;;;;;;;3.25;1.38;;;32.00;99.90;;;;;;4160948;28;20041;-62
2022/07/15 05:50:01;;;;;;;4.25;1.33;;;32.10;99.90;;;;;;4161425;28;20061;-62
2022/07/15 05:52:08;;;;;;;3.88;1.17;;;32.20;99.90;;;;;;4161041;28;20495;-63
2022/07/15 05:54:16;;;;;;;3.42;1.50;;;32.20;99.90;;;;;;4162948;28;20164;-62
2022/07/15 05:56:22;;;;;;;2.50;1.20;;;32.20;99.90;;;;;;4162958;28;20069;-62
2022/07/15 05:58:27;;;;;;;4.10;1.35;;;32.20;99.90;;;;;;4163806;28;20053;-63
2022/07/15 06:00:33;;;;;;;2.55;1.40;;;32.20;99.90;;;;;;4159972;28;20128;-62
2022/07/15 06:02:39;;;;;;;4.20;1.88;;;32.20;99.90;;;;;;4187431;28;20665;-62
2022/07/15 06:04:50;;;;;;;5.55;1.90;;;32.30;99.90;;;;;;4159929;28;20049;-62
2022/07/15 06:06:55;;;;;;;4.95;1.80;;;32.30;99.90;;;;;;4163551;28;20561;-62
2022/07/15 06:09:02;;;;;;;3.83;1.90;;;32.30;99.90;;;;;;4161910;28;20117;-63
2022/07/15 06:11:08;;;;;;;4.55;1.48;;;32.30;99.90;;;;;;4163521;28;20049;-63
2022/07/15 06:13:15;;;;;;;3.90;1.73;;;32.20;99.90;;;;;;4143182;28;20050;-63
2022/07/15 06:15:23;;;;;;;4.35;1.73;;;32.20;99.90;;;;;;4162109;28;20060;-63
2022/07/15 06:17:27;;;;;;;3.97;1.92;;;32.20;99.90;;;;;;4163035;28;20504;-63
2022/07/15 06:19:35;;;;;;;5.43;1.95;;;32.20;99.90;;;;;;4162685;28;20204;-64
2022/07/15 06:21:42;;;;;;;5.75;1.70;;;32.20;99.90;;;;;;4162585;28;20053;-64
2022/07/15 06:23:46;;;;;;;4.97;1.80;;;32.20;99.90;;;;;;4162705;28;20053;-64
2022/07/15 06:25:52;;;;;;;2.75;1.55;;;32.10;99.90;;;;;;4163315;28;20408;-64
2022/07/15 06:27:58;;;;;;;4.32;1.40;;;32.00;99.90;;;;;;4161950;28;20045;-64
2022/07/15 06:30:04;;;;;;;7.03;1.75;;;32.00;99.90;;;;;;4162870;28;20623;-64
2022/07/15 06:32:11;;;;;;;4.22;1.58;;;32.00;99.90;;;;;;4161995;28;20046;-63
2022/07/15 06:34:18;;;;;;;4.78;1.80;;;32.10;99.90;;;;;;4162660;28;20092;-63
2022/07/15 06:36:23;;;;;;;5.43;1.83;;;32.00;99.90;;;;;;4162475;28;20128;-64
2022/07/15 06:38:27;;;;;;;3.83;1.90;;;32.00;99.90;;;;;;4163235;28;20029;-64
2022/07/15 06:40:34;;;;;;;2.92;1.70;;;32.00;99.90;;;;;;4162229;28;20041;-64
2022/07/15 06:42:38;;;;;;;5.43;1.70;;;32.00;99.90;;;;;;4162204;28;20041;-64
2022/07/15 06:44:49;;;;;;;5.20;1.75;;;32.00;99.90;;;;;;4161354;28;20053;-64
2022/07/15 06:46:56;;;;;;;4.97;2.05;;;32.10;99.90;;;;;;4161210;28;20053;-63
2022/07/15 06:49:04;;;;;;;3.97;2.00;;;32.10;99.90;;;;;;4178281;28;20055;-63
2022/07/15 06:51:09;;;;;;;7.07;2.03;;;32.10;99.90;;;;;;4162992;28;20072;-64
2022/07/15 06:53:14;;;;;;;9.27;2.17;;;32.00;99.90;;;;;;4192112;28;20107;-64
2022/07/15 06:55:19;;;;;;;6.30;2.00;;;32.00;99.90;;;;;;4163211;28;20087;-64
2022/07/15 06:57:24;;;;;;;8.85;2.20;;;32.00;99.90;;;;;;4161426;28;20045;-64
2022/07/15 06:59:29;;;;;;;5.43;2.10;;;32.00;99.90;;;;;;4177885;28;20539;-63
2022/07/15 07:01:34;;;;;;;4.10;1.90;;;31.90;99.90;;;;;;4160797;28;20058;-64
2022/07/15 07:03:42;;;;;;;7.22;2.15;;;32.00;99.90;;;;;;4162221;28;20048;-64
2022/07/15 07:06:01;;;;;;;3.80;1.80;;;32.00;99.90;;;;;;4163197;28;20081;-63
2022/07/15 07:08:05;;;;;;;5.68;1.65;;;31.90;99.90;;;;;;4161230;28;20059;-64
2022/07/15 07:10:12;;;;;;;2.88;1.90;;;31.90;99.90;;;;;;4162021;28;20076;-64
2022/07/15 07:12:19;;;;;;;3.50;2.00;;;32.00;99.90;;;;;;4161566;28;20050;-63
2022/07/15 07:14:24;;;;;;;5.18;1.95;;;32.00;99.90;;;;;;4161263;28;20047;-63
2022/07/15 07:16:28;;;;;;;4.78;1.90;;;32.00;99.90;;;;;;4162396;28;20049;-63
2022/07/15 07:18:35;;;;;;;2.95;2.00;;;31.90;99.90;;;;;;4160631;28;20579;-63
2022/07/15 07:20:43;;;;;;;5.32;3.10;;;31.90;99.90;;;;;;4160441;28;20096;-63
2022/07/15 07:22:48;;;;;;;8.63;2.70;;;31.90;99.90;;;;;;4164426;28;20037;-63
2022/07/15 07:24:54;;;;;;;4.82;2.40;;;31.90;99.90;;;;;;4165656;28;20037;-64
2022/07/15 07:26:59;;;;;;;7.72;2.70;;;31.80;99.90;;;;;;4166831;28;20065;-66
2022/07/15 07:29:12;;;;;;;8.07;2.65;;;31.80;99.90;;;;;;4165336;28;20377;-65
2022/07/15 07:31:17;;;;;;;4.45;2.67;;;31.90;99.90;;;;;;4164511;28;20065;-66
2022/07/15 07:33:22;;;;;;;5.05;2.33;;;31.90;99.90;;;;;;4165596;28;20511;-65
2022/07/15 07:35:26;;;;;;;3.75;1.60;;;31.80;99.90;;;;;;4168316;28;20522;-65
2022/07/15 07:37:36;;;;;;;8.70;1.77;;;31.70;99.90;;;;;;4160616;28;20057;-64
2022/07/15 07:39:41;;;;;;;5.13;1.92;;;31.60;99.90;;;;;;4160188;28;20696;-64
2022/07/15 07:41:52;;;;;;;5.63;1.92;;;31.50;99.90;;;;;;4161668;28;20049;-64
2022/07/15 07:43:59;;;;;;;4.85;2.30;;;31.40;99.90;;;;;;4162115;28;20455;-65
2022/07/15 07:46:06;;;;;;;8.75;2.00;;;31.30;99.90;;;;;;4159439;28;20500;-64
2022/07/15 07:48:12;;;;;;;6.30;1.90;;;31.40;99.90;;;;;;4149080;28;20753;-64
2022/07/15 07:50:18;;;;;;;5.45;1.38;;;31.30;99.90;;;;;;4159484;28;20120;-64
2022/07/15 07:52:23;;;;;;;4.63;1.38;;;31.30;99.90;;;;;;4162453;28;20048;-64
2022/07/15 07:54:30;;;;;;;5.85;1.70;;;31.20;99.90;;;;;;4159641;28;20103;-64
2022/07/15 07:56:36;;;;;;;4.32;1.52;;;31.20;99.90;;;;;;4160564;28;20491;-64
2022/07/15 07:58:40;;;;;;;4.40;1.70;;;31.20;99.90;;;;;;4159655;28;20058;-64
2022/07/15 08:00:45;;;;;;;5.13;1.83;;;31.10;99.90;;;;;;4161653;28;20092;-65
2022/07/15 08:02:50;;;;;;;5.80;1.90;;;31.20;99.90;;;;;;4161573;28;20130;-65
2022/07/15 08:04:55;;;;;;;6.30;1.90;;;31.10;99.90;;;;;;4160279;28;20037;-65
2022/07/15 08:07:08;;;;;;;3.78;1.35;;;31.10;99.90;;;;;;4127305;28;20358;-64
2022/07/15 08:09:12;;;;;;;2.25;1.65;;;31.10;99.90;;;;;;4161069;28;20129;-63
2022/07/15 08:11:19;;;;;;;3.08;1.52;;;31.10;99.90;;;;;;4159597;28;20029;-64
2022/07/15 08:13:37;;;;;;;3.08;1.40;;;31.00;99.90;;;;;;4142953;28;20483;-64
2022/07/15 08:15:43;;;;;;;3.55;1.20;;;31.00;99.90;;;;;;4143461;28;20050;-66
2022/07/15 08:17:48;;;;;;;5.03;1.73;;;31.10;99.90;;;;;;4143762;28;20076;-63
2022/07/15 08:19:54;;;;;;;7.97;1.77;;;31.20;99.90;;;;;;4111627;28;20101;-63
2022/07/15 08:21:59;;;;;;;4.38;1.48;;;31.10;99.90;;;;;;4141623;28;20111;-64
2022/07/15 08:24:03;;;;;;;4.70;1.77;;;31.20;99.90;;;;;;4144097;28;20132;-63
2022/07/15 08:26:10;;;;;;;7.03;1.50;;;31.20;99.90;;;;;;4143495;28;20053;-63
2022/07/15 08:28:18;;;;;;;2.40;1.40;;;31.20;99.90;;;;;;4141189;28;20521;-63
2022/07/15 08:30:22;;;;;;;5.45;1.85;;;31.00;99.90;;;;;;4143555;28;20038;-63
2022/07/15 08:32:27;;;;;;;5.80;2.33;;;31.00;99.90;;;;;;4142626;28;20038;-63
2022/07/15 08:34:31;;;;;;;6.38;1.98;;;30.90;99.90;;;;;;4142683;28;20136;-65
2022/07/15 08:36:36;;;;;;;8.57;2.42;;;30.70;99.90;;;;;;4141243;28;20678;-64
2022/07/15 08:38:41;;;;;;;5.15;2.10;;;30.60;99.90;;;;;;4143101;28;20046;-64
2022/07/15 08:40:47;;;;;;;7.85;2.40;;;30.50;99.90;;;;;;4142287;28;20045;-64
2022/07/15 08:42:52;;;;;;;8.20;2.00;;;30.40;99.90;;;;;;4141129;28;20084;-64
2022/07/15 08:44:58;;;;;;;6.32;2.63;;;30.30;99.90;;;;;;4110368;28;20058;-64
2022/07/15 08:47:07;;;;;;;3.72;1.75;;;30.20;99.90;;;;;;4140380;28;20049;-63
2022/07/15 08:49:32;;;;;;;8.05;2.00;;;30.10;99.90;;;;;;4140832;28;20058;-63
2022/07/15 08:51:44;;;;;;;5.47;1.60;;;30.00;99.90;;;;;;4143160;28;20042;-63
2022/07/15 08:53:51;;;;;;;4.13;1.85;;;30.00;99.90;;;;;;4125621;28;20521;-63
2022/07/15 08:55:56;;;;;;;2.78;1.63;;;30.00;99.90;;;;;;4142870;28;20049;-63
2022/07/15 08:58:02;;;;;;;4.72;2.28;;;29.90;99.90;;;;;;4140181;28;20062;-63
2022/07/15 09:00:09;;;;;;;4.22;1.73;;;30.00;99.90;;;;;;4141727;28;20104;-63
2022/07/15 09:02:14;;;;;;;3.95;1.67;;;29.90;99.90;;;;;;4133042;28;20103;-63
2022/07/15 09:04:19;;;;;;;4.70;1.77;;;30.00;99.90;;;;;;4135757;28;20046;-64
2022/07/15 09:06:40;;;;;;;4.93;2.72;;;30.00;99.90;;;;;;4135207;28;20058;-64
2022/07/15 09:08:48;;;;;;;6.22;2.60;;;30.10;99.90;;;;;;4135074;28;20054;-62
2022/07/15 09:10:55;;;;;;;4.18;2.10;;;30.00;99.90;;;;;;4134621;28;20124;-63
2022/07/15 09:13:00;;;;;;;5.57;1.75;;;30.10;99.90;;;;;;4136604;28;20045;-63
2022/07/15 09:15:05;;;;;;;5.40;2.17;;;30.10;99.90;;;;;;4135624;28;20878;-63
2022/07/15 09:17:20;;;;;;;4.07;1.90;;;30.10;99.90;;;;;;4114115;28;20440;-63
2022/07/15 09:19:25;;;;;;;5.32;2.13;;;30.20;99.90;;;;;;4153888;28;20238;-63
2022/07/15 09:21:30;;;;;;;4.20;2.10;;;30.30;99.90;;;;;;4154994;28;20095;-63
2022/07/15 09:23:34;;;;;;;3.85;2.20;;;30.40;99.90;;;;;;4154334;28;20049;-64
2022/07/15 09:25:41;;;;;;;3.92;2.28;;;30.40;99.90;;;;;;4154958;28;20069;-63
2022/07/15 09:27:46;;;;;;;3.25;2.38;;;30.50;99.90;;;;;;4155421;28;20152;-64
2022/07/15 09:34:25;;;;;;;3.63;2.30;;;30.90;99.90;;;;;;4145000;28;20045;-63
2022/07/15 09:36:31;;;;;;;6.55;3.58;;;31.10;99.90;;;;;;4160741;28;20492;-63
2022/07/15 09:38:57;;;;;;;5.65;3.30;;;31.20;99.90;;;;;;4158591;28;20037;-63
2022/07/15 09:41:02;;;;;;;4.40;2.65;;;31.20;99.90;;;;;;4158430;28;20045;-62
2022/07/15 09:43:07;;;;;;;7.72;2.70;;;31.20;99.90;;;;;;4161257;28;20080;-62
2022/07/15 09:45:21;;;;;;;4.30;2.28;;;31.20;99.90;;;;;;4159572;28;20635;-64
2022/07/15 09:47:29;;;;;;;6.50;2.63;;;31.20;99.90;;;;;;4159536;28;20047;-64
2022/07/15 09:49:38;;;;;;;3.85;2.70;;;31.30;99.90;;;;;;4156372;28;20525;-63
2022/07/15 09:51:49;;;;;;;4.43;2.50;;;31.40;99.90;;;;;;4160809;28;20095;-63
2022/07/15 09:53:54;;;;;;;3.83;1.92;;;31.50;99.90;;;;;;4153511;28;20158;-63
2022/07/15 09:56:05;;;;;;;3.42;2.03;;;31.60;99.90;;;;;;4158436;28;20079;-63
2022/07/15 09:58:10;;;;;;;3.30;2.08;;;31.80;99.90;;;;;;4154833;28;20499;-65
2022/07/15 10:00:15;;;;;;;4.40;2.08;;;31.80;99.90;;;;;;4155930;28;20144;-63
2022/07/15 10:02:20;;;;;;;5.70;2.47;;;31.80;99.90;;;;;;4118475;28;20260;-64
2022/07/15 10:04:27;;;;;;;3.60;1.90;;;31.80;99.90;;;;;;4156153;28;20095;-64
2022/07/15 10:06:35;;;;;;;3.45;1.98;;;31.90;99.90;;;;;;4155522;28;20124;-65
2022/07/15 10:08:39;;;;;;;5.28;2.10;;;32.00;99.90;;;;;;4153528;28;20505;-65
2022/07/15 10:10:49;;;;;;;4.90;2.35;;;32.10;99.90;;;;;;4155336;28;20706;-64
2022/07/15 10:13:34;;;;;;;4.20;2.25;;;32.20;99.90;;;;;;4153846;28;20045;-64
2022/07/15 10:16:12;;;;;;;5.30;1.95;;;32.00;99.90;;;;;;4155564;28;20041;-64
2022/07/15 10:19:01;;;;;;;3.75;1.88;;;31.80;99.90;;;;;;4156361;28;20045;-64
2022/07/15 10:21:25;;;;;;;6.68;2.63;;;31.70;99.90;;;;;;4157592;28;20519;-64
2022/07/15 10:23:55;;;;;;;6.30;2.20;;;31.70;99.90;;;;;;4158104;28;20056;-64
2022/07/15 10:26:24;;;;;;;4.97;1.80;;;31.50;99.90;;;;;;4154905;28;20049;-64
2022/07/15 10:29:04;;;;;;;4.32;1.95;;;31.50;99.90;;;;;;4155811;28;20057;-64
2022/07/15 10:31:27;;;;;;;4.93;1.85;;;31.60;99.90;;;;;;4156388;28;20052;-64
2022/07/15 10:33:32;;;;;;;3.58;1.98;;;31.60;99.90;;;;;;4157320;28;20041;-64
2022/07/15 10:35:47;;;;;;;6.68;2.67;;;31.60;99.90;;;;;;4157719;28;20408;-64
2022/07/15 10:38:16;;;;;;;5.97;2.47;;;31.60;99.90;;;;;;4155909;28;20045;-64
2022/07/15 10:40:21;;;;;;;5.35;2.35;;;31.40;99.90;;;;;;4154905;28;20044;-64
2022/07/15 10:42:25;;;;;;;5.55;2.45;;;31.30;99.90;;;;;;4157903;28;20049;-64
2022/07/15 10:44:37;;;;;;;5.40;2.40;;;31.20;99.90;;;;;;4157952;28;20483;-64
2022/07/15 10:46:41;;;;;;;6.75;3.10;;;31.10;99.90;;;;;;4138900;28;20080;-65
2022/07/15 10:49:10;;;;;;;10.68;3.60;;;31.10;99.90;;;;;;4156700;28;20049;-63
2022/07/15 10:51:52;;;;;;;11.90;4.28;;;31.10;99.90;;;;;;4157009;28;20041;-64
2022/07/15 10:53:59;;;;;;;12.70;3.95;;;31.00;99.90;;;;;;4154322;28;20560;-64
2022/07/15 10:56:36;;;;;;;10.05;3.90;;;31.00;99.90;;;;;;4156939;28;20440;-64
2022/07/15 10:58:40;;;;;;;6.22;3.00;;;30.90;99.90;;;;;;4156664;28;20053;-64
2022/07/15 11:00:46;;;;;;;8.02;3.42;;;30.90;99.90;;;;;;4154328;28;20050;-63
2022/07/15 11:03:06;;;;;;;6.68;2.60;;;30.90;99.90;;;;;;4157026;28;20049;-63
2022/07/15 11:05:18;;;;;;;5.72;2.90;;;30.80;99.90;;;;;;4156967;28;20088;-64
2022/07/15 11:07:25;;;;;;;4.93;2.50;;;30.80;99.90;;;;;;4156230;28;20500;-64
2022/07/15 11:10:01;;;;;;;4.97;2.85;;;30.80;99.90;;;;;;4158882;28;20444;-65
2022/07/15 11:12:06;;;;;;;4.72;2.85;;;30.70;99.90;;;;;;4161529;28;20073;-64
2022/07/15 11:14:44;;;;;;;6.82;3.28;;;30.70;99.90;;;;;;4162396;28;20050;-62
2022/07/15 11:16:56;;;;;;;6.63;3.00;;;30.70;99.90;;;;;;4161408;28;20124;-64
2022/07/15 11:19:01;;;;;;;4.78;2.78;;;30.70;99.90;;;;;;4160540;28;20968;-64
2022/07/15 11:21:09;;;;;;;5.78;3.45;;;30.60;99.90;;;;;;4161210;28;20560;-63
2022/07/15 11:23:17;;;;;;;5.72;3.15;;;30.60;99.90;;;;;;4161391;28;20155;-64
2022/07/15 11:25:34;;;;;;;6.95;3.67;;;30.50;99.90;;;;;;4160034;28;20057;-63
2022/07/15 11:27:39;;;;;;;5.53;3.20;;;30.50;99.90;;;;;;4156006;28;20045;-64